sensor_id;sensor_type;location;lat;lon;timestamp;temperature;humidity
17639;DHT22;8938;53.546;9.954;2023-08-08T00:01:48;17.30;99.90
17639;DHT22;8938;53.546;9.954;2023-08-08T00:04:15;17.20;99.90
17639;DHT22;8938;53.546;9.954;2023-08-08T00:06:41;17.20;99.90
17639;DHT22;8938;53.546;9.954;2023-08-08T00:09:06;17.30;99.90
17639;DHT22;8938;53.546;9.954;2023-08-08T00:11:32;17.20;99.90
17639;DHT22;8938;53.546;9.954;2023-08-08T00:13:58;17.10;99.90
17639;DHT22;8938;53.546;9.954;2023-08-08T00:16:24;17.00;99.90
17639;DHT22;8938;53.546;9.954;2023-08-08T00:18:49;16.80;99.90
17639;DHT22;8938;53.546;9.954;2023-08-08T00:21:17;16.80;99.90
17639;DHT22;8938;53.546;9.954;2023-08-08T00:23:43;16.70;99.90
17639;DHT22;8938;53.546;9.954;2023-08-08T00:26:08;16.70;99.90
17639;DHT22;8938;53.546;9.954;2023-08-08T00:28:34;16.70;99.90
17639;DHT22;8938;53.546;9.954;2023-08-08T00:30:59;16.80;99.90
17639;DHT22;8938;53.546;9.954;2023-08-08T00:33:25;16.70;99.90
17639;DHT22;8938;53.546;9.954;2023-08-08T00:35:50;16.70;99.90
17639;DHT22;8938;53.546;9.954;2023-08-08T00:38:16;16.80;99.90
17639;DHT22;8938;53.546;9.954;2023-08-08T00:40:43;16.70;99.90
17639;DHT22;8938;53.546;9.954;2023-08-08T00:43:09;16.70;99.90
17639;DHT22;8938;53.546;9.954;2023-08-08T00:45:34;16.70;99.90
17639;DHT22;8938;53.546;9.954;2023-08-08T00:48:00;16.70;99.90
17639;DHT22;8938;53.546;9.954;2023-08-08T00:50:26;16.60;99.90
17639;DHT22;8938;53.546;9.954;2023-08-08T00:52:52;16.60;99.90
17639;DHT22;8938;53.546;9.954;2023-08-08T00:55:18;16.60;99.90
17639;DHT22;8938;53.546;9.954;2023-08-08T00:57:44;16.60;99.90
17639;DHT22;8938;53.546;9.954;2023-08-08T01:00:10;16.50;99.90
17639;DHT22;8938;53.546;9.954;2023-08-08T01:02:36;16.50;99.90
17639;DHT22;8938;53.546;9.954;2023-08-08T01:05:02;16.40;99.90
17639;DHT22;8938;53.546;9.954;2023-08-08T01:08:10;16.40;99.90
17639;DHT22;8938;53.546;9.954;2023-08-08T01:10:31;16.50;99.90
17639;DHT22;8938;53.546;9.954;2023-08-08T01:13:08;16.40;99.90
17639;DHT22;8938;53.546;9.954;2023-08-08T01:15:36;16.40;99.90
17639;DHT22;8938;53.546;9.954;2023-08-08T01:18:05;16.40;99.90
17639;DHT22;8938;53.546;9.954;2023-08-08T01:20:32;16.30;99.90
17639;DHT22;8938;53.546;9.954;2023-08-08T01:23:12;16.40;99.90
17639;DHT22;8938;53.546;9.954;2023-08-08T01:25:40;16.40;99.90
17639;DHT22;8938;53.546;9.954;2023-08-08T01:28:07;16.40;99.90
17639;DHT22;8938;53.546;9.954;2023-08-08T01:30:32;16.40;99.90
17639;DHT22;8938;53.546;9.954;2023-08-08T01:32:58;16.40;99.90
17639;DHT22;8938;53.546;9.954;2023-08-08T01:35:26;16.50;99.90
17639;DHT22;8938;53.546;9.954;2023-08-08T01:38:00;16.50;99.90
17639;DHT22;8938;53.546;9.954;2023-08-08T01:40:29;16.60;99.90
17639;DHT22;8938;53.546;9.954;2023-08-08T01:42:56;16.50;99.90
17639;DHT22;8938;53.546;9.954;2023-08-08T01:45:22;16.40;99.90
17639;DHT22;8938;53.546;9.954;2023-08-08T01:47:50;16.40;99.90
17639;DHT22;8938;53.546;9.954;2023-08-08T01:50:16;16.50;99.90
17639;DHT22;8938;53.546;9.954;2023-08-08T01:52:42;16.50;99.90
17639;DHT22;8938;53.546;9.954;2023-08-08T01:55:08;16.60;99.90
17639;DHT22;8938;53.546;9.954;2023-08-08T01:57:33;16.70;99.90
17639;DHT22;8938;53.546;9.954;2023-08-08T01:59:59;16.60;99.90
17639;DHT22;8938;53.546;9.954;2023-08-08T02:02:24;16.60;99.90
17639;DHT22;8938;53.546;9.954;2023-08-08T02:04:50;16.70;99.90
17639;DHT22;8938;53.546;9.954;2023-08-08T02:07:15;16.60;99.90
17639;DHT22;8938;53.546;9.954;2023-08-08T02:09:41;16.70;99.90
17639;DHT22;8938;53.546;9.954;2023-08-08T02:12:07;16.60;99.90
17639;DHT22;8938;53.546;9.954;2023-08-08T02:14:32;16.60;99.90
17639;DHT22;8938;53.546;9.954;2023-08-08T02:16:58;16.60;99.90
17639;DHT22;8938;53.546;9.954;2023-08-08T02:19:24;16.70;99.90
17639;DHT22;8938;53.546;9.954;2023-08-08T02:21:49;16.80;99.90
17639;DHT22;8938;53.546;9.954;2023-08-08T02:24:15;16.80;99.90
17639;DHT22;8938;53.546;9.954;2023-08-08T02:26:40;16.80;99.90
17639;DHT22;8938;53.546;9.954;2023-08-08T02:29:06;16.90;99.90
17639;DHT22;8938;53.546;9.954;2023-08-08T02:31:31;16.70;99.90
17639;DHT22;8938;53.546;9.954;2023-08-08T02:33:57;16.80;99.90
17639;DHT22;8938;53.546;9.954;2023-08-08T02:36:22;16.80;99.90
17639;DHT22;8938;53.546;9.954;2023-08-08T02:38:48;16.50;99.90
17639;DHT22;8938;53.546;9.954;2023-08-08T02:41:15;16.50;99.90
17639;DHT22;8938;53.546;9.954;2023-08-08T02:43:41;16.50;99.90
17639;DHT22;8938;53.546;9.954;2023-08-08T02:46:06;16.70;99.90
17639;DHT22;8938;53.546;9.954;2023-08-08T02:48:32;16.70;99.90
17639;DHT22;8938;53.546;9.954;2023-08-08T02:50:58;16.80;99.90
17639;DHT22;8938;53.546;9.954;2023-08-08T02:53:23;16.70;99.90
17639;DHT22;8938;53.546;9.954;2023-08-08T02:55:49;16.70;99.90
17639;DHT22;8938;53.546;9.954;2023-08-08T02:58:15;16.60;99.90
17639;DHT22;8938;53.546;9.954;2023-08-08T03:00:40;16.70;99.90
17639;DHT22;8938;53.546;9.954;2023-08-08T03:03:06;16.80;99.90
17639;DHT22;8938;53.546;9.954;2023-08-08T03:05:31;16.70;99.90
17639;DHT22;8938;53.546;9.954;2023-08-08T03:07:57;16.70;99.90
17639;DHT22;8938;53.546;9.954;2023-08-08T03:10:22;16.60;99.90
17639;DHT22;8938;53.546;9.954;2023-08-08T03:12:48;16.60;99.90
17639;DHT22;8938;53.546;9.954;2023-08-08T03:15:13;16.60;99.90
17639;DHT22;8938;53.546;9.954;2023-08-08T03:17:39;16.60;99.90
17639;DHT22;8938;53.546;9.954;2023-08-08T03:20:05;16.60;99.90
17639;DHT22;8938;53.546;9.954;2023-08-08T03:22:32;16.60;99.90
17639;DHT22;8938;53.546;9.954;2023-08-08T03:24:57;16.70;99.90
17639;DHT22;8938;53.546;9.954;2023-08-08T03:27:24;16.60;99.90
17639;DHT22;8938;53.546;9.954;2023-08-08T03:29:50;16.60;99.90
17639;DHT22;8938;53.546;9.954;2023-08-08T03:32:15;16.40;99.90
17639;DHT22;8938;53.546;9.954;2023-08-08T03:34:41;16.50;99.90
17639;DHT22;8938;53.546;9.954;2023-08-08T03:37:06;16.60;99.90
17639;DHT22;8938;53.546;9.954;2023-08-08T03:39:32;16.70;99.90
17639;DHT22;8938;53.546;9.954;2023-08-08T03:41:57;16.60;99.90
17639;DHT22;8938;53.546;9.954;2023-08-08T03:44:23;16.70;99.90
17639;DHT22;8938;53.546;9.954;2023-08-08T03:46:48;16.60;99.90
17639;DHT22;8938;53.546;9.954;2023-08-08T03:49:15;16.60;99.90
17639;DHT22;8938;53.546;9.954;2023-08-08T03:51:40;16.60;99.90
17639;DHT22;8938;53.546;9.954;2023-08-08T03:54:06;16.60;99.90
17639;DHT22;8938;53.546;9.954;2023-08-08T03:56:31;16.50;99.90
17639;DHT22;8938;53.546;9.954;2023-08-08T03:58:58;16.60;99.90
17639;DHT22;8938;53.546;9.954;2023-08-08T04:01:23;16.60;99.90
17639;DHT22;8938;53.546;9.954;2023-08-08T04:03:49;16.60;99.90
17639;DHT22;8938;53.546;9.954;2023-08-08T04:06:14;16.60;99.90
17639;DHT22;8938;53.546;9.954;2023-08-08T04:08:40;16.70;99.90
17639;DHT22;8938;53.546;9.954;2023-08-08T04:11:05;16.60;99.90
17639;DHT22;8938;53.546;9.954;2023-08-08T04:13:31;16.80;99.90
17639;DHT22;8938;53.546;9.954;2023-08-08T04:15:57;16.60;99.90
17639;DHT22;8938;53.546;9.954;2023-08-08T04:18:22;16.70;99.90
17639;DHT22;8938;53.546;9.954;2023-08-08T04:20:48;16.90;99.90
17639;DHT22;8938;53.546;9.954;2023-08-08T04:23:13;16.80;99.90
17639;DHT22;8938;53.546;9.954;2023-08-08T04:25:39;16.80;99.90
17639;DHT22;8938;53.546;9.954;2023-08-08T04:28:05;16.70;99.90
17639;DHT22;8938;53.546;9.954;2023-08-08T04:30:30;16.60;99.90
17639;DHT22;8938;53.546;9.954;2023-08-08T04:32:56;16.70;99.90
17639;DHT22;8938;53.546;9.954;2023-08-08T04:35:21;16.70;99.90
17639;DHT22;8938;53.546;9.954;2023-08-08T04:37:47;16.60;99.90
17639;DHT22;8938;53.546;9.954;2023-08-08T04:40:12;16.60;99.90
17639;DHT22;8938;53.546;9.954;2023-08-08T04:42:38;16.60;99.90
17639;DHT22;8938;53.546;9.954;2023-08-08T04:45:04;16.60;99.90
17639;DHT22;8938;53.546;9.954;2023-08-08T04:47:30;16.60;99.90
17639;DHT22;8938;53.546;9.954;2023-08-08T04:49:56;16.60;99.90
17639;DHT22;8938;53.546;9.954;2023-08-08T04:52:21;16.60;99.90
17639;DHT22;8938;53.546;9.954;2023-08-08T04:54:47;16.60;99.90
17639;DHT22;8938;53.546;9.954;2023-08-08T04:57:12;16.60;99.90
17639;DHT22;8938;53.546;9.954;2023-08-08T04:59:38;16.70;99.90
17639;DHT22;8938;53.546;9.954;2023-08-08T05:02:03;16.60;99.90
17639;DHT22;8938;53.546;9.954;2023-08-08T05:04:30;16.60;99.90
17639;DHT22;8938;53.546;9.954;2023-08-08T05:06:55;16.60;99.90
17639;DHT22;8938;53.546;9.954;2023-08-08T05:09:21;16.70;99.90
17639;DHT22;8938;53.546;9.954;2023-08-08T05:11:52;16.70;99.90
17639;DHT22;8938;53.546;9.954;2023-08-08T05:14:17;16.80;99.90
17639;DHT22;8938;53.546;9.954;2023-08-08T05:16:43;16.90;99.90
17639;DHT22;8938;53.546;9.954;2023-08-08T05:19:08;16.90;99.90
17639;DHT22;8938;53.546;9.954;2023-08-08T05:21:34;17.00;99.90
17639;DHT22;8938;53.546;9.954;2023-08-08T05:24:00;17.10;99.90
17639;DHT22;8938;53.546;9.954;2023-08-08T05:26:25;17.10;99.90
17639;DHT22;8938;53.546;9.954;2023-08-08T05:28:51;17.20;99.90
17639;DHT22;8938;53.546;9.954;2023-08-08T05:31:17;17.20;99.90
17639;DHT22;8938;53.546;9.954;2023-08-08T05:33:42;17.20;99.90
17639;DHT22;8938;53.546;9.954;2023-08-08T05:36:08;17.30;99.90
17639;DHT22;8938;53.546;9.954;2023-08-08T05:38:33;17.40;99.90
17639;DHT22;8938;53.546;9.954;2023-08-08T05:40:59;17.60;99.90
17639;DHT22;8938;53.546;9.954;2023-08-08T05:43:24;17.70;99.90
17639;DHT22;8938;53.546;9.954;2023-08-08T05:45:50;17.70;99.90
17639;DHT22;8938;53.546;9.954;2023-08-08T05:48:15;17.80;99.90
17639;DHT22;8938;53.546;9.954;2023-08-08T05:50:41;17.80;99.90
17639;DHT22;8938;53.546;9.954;2023-08-08T05:53:07;17.90;99.90
17639;DHT22;8938;53.546;9.954;2023-08-08T05:55:33;17.80;99.90
17639;DHT22;8938;53.546;9.954;2023-08-08T05:57:58;17.80;99.90
17639;DHT22;8938;53.546;9.954;2023-08-08T06:00:24;17.80;99.90
17639;DHT22;8938;53.546;9.954;2023-08-08T06:02:50;17.90;99.90
17639;DHT22;8938;53.546;9.954;2023-08-08T06:05:17;17.90;99.90
17639;DHT22;8938;53.546;9.954;2023-08-08T06:07:43;17.90;99.90
17639;DHT22;8938;53.546;9.954;2023-08-08T06:10:09;18.00;99.90
17639;DHT22;8938;53.546;9.954;2023-08-08T06:12:34;17.90;99.90
17639;DHT22;8938;53.546;9.954;2023-08-08T06:15:00;18.00;99.90
17639;DHT22;8938;53.546;9.954;2023-08-08T06:17:26;18.00;99.90
17639;DHT22;8938;53.546;9.954;2023-08-08T06:19:51;18.10;99.90
17639;DHT22;8938;53.546;9.954;2023-08-08T06:22:19;18.10;99.90
17639;DHT22;8938;53.546;9.954;2023-08-08T06:24:44;18.00;99.90
17639;DHT22;8938;53.546;9.954;2023-08-08T06:27:10;17.90;99.90
17639;DHT22;8938;53.546;9.954;2023-08-08T06:29:35;18.10;99.90
17639;DHT22;8938;53.546;9.954;2023-08-08T06:32:01;18.10;99.90
17639;DHT22;8938;53.546;9.954;2023-08-08T06:34:27;18.10;99.90
17639;DHT22;8938;53.546;9.954;2023-08-08T06:36:52;18.30;99.90
17639;DHT22;8938;53.546;9.954;2023-08-08T06:39:18;18.60;99.90
17639;DHT22;8938;53.546;9.954;2023-08-08T06:41:46;18.80;99.90
17639;DHT22;8938;53.546;9.954;2023-08-08T06:44:12;18.70;99.90
17639;DHT22;8938;53.546;9.954;2023-08-08T06:46:37;18.70;99.90
17639;DHT22;8938;53.546;9.954;2023-08-08T06:49:03;18.60;99.90
17639;DHT22;8938;53.546;9.954;2023-08-08T06:51:29;18.50;99.90
17639;DHT22;8938;53.546;9.954;2023-08-08T06:53:55;18.60;99.90
17639;DHT22;8938;53.546;9.954;2023-08-08T06:56:20;18.60;99.90
17639;DHT22;8938;53.546;9.954;2023-08-08T06:58:46;18.80;99.90
17639;DHT22;8938;53.546;9.954;2023-08-08T07:01:11;19.00;99.90
17639;DHT22;8938;53.546;9.954;2023-08-08T07:03:38;19.10;99.90
17639;DHT22;8938;53.546;9.954;2023-08-08T07:06:04;19.10;99.90
17639;DHT22;8938;53.546;9.954;2023-08-08T07:08:29;19.20;99.90
17639;DHT22;8938;53.546;9.954;2023-08-08T07:10:57;19.30;99.90
17639;DHT22;8938;53.546;9.954;2023-08-08T07:13:23;19.10;99.90
17639;DHT22;8938;53.546;9.954;2023-08-08T07:15:48;19.10;99.90
17639;DHT22;8938;53.546;9.954;2023-08-08T07:18:15;19.20;99.90
17639;DHT22;8938;53.546;9.954;2023-08-08T07:20:40;19.40;99.90
17639;DHT22;8938;53.546;9.954;2023-08-08T07:23:06;19.50;99.90
17639;DHT22;8938;53.546;9.954;2023-08-08T07:25:31;19.60;99.90
17639;DHT22;8938;53.546;9.954;2023-08-08T07:27:57;19.60;99.90
17639;DHT22;8938;53.546;9.954;2023-08-08T07:30:23;19.70;99.90
17639;DHT22;8938;53.546;9.954;2023-08-08T07:32:48;19.60;99.90
17639;DHT22;8938;53.546;9.954;2023-08-08T07:35:14;19.70;99.90
17639;DHT22;8938;53.546;9.954;2023-08-08T07:37:40;19.80;99.90
17639;DHT22;8938;53.546;9.954;2023-08-08T07:40:14;19.70;99.90
17639;DHT22;8938;53.546;9.954;2023-08-08T07:42:40;19.80;99.90
17639;DHT22;8938;53.546;9.954;2023-08-08T07:45:06;19.90;99.90
17639;DHT22;8938;53.546;9.954;2023-08-08T07:47:31;20.20;99.90
17639;DHT22;8938;53.546;9.954;2023-08-08T07:49:57;20.40;99.90
17639;DHT22;8938;53.546;9.954;2023-08-08T07:52:22;20.40;99.90
17639;DHT22;8938;53.546;9.954;2023-08-08T07:54:49;20.40;99.90
17639;DHT22;8938;53.546;9.954;2023-08-08T07:57:14;20.40;99.90
17639;DHT22;8938;53.546;9.954;2023-08-08T07:59:40;20.50;99.90
17639;DHT22;8938;53.546;9.954;2023-08-08T08:02:05;20.30;99.90
17639;DHT22;8938;53.546;9.954;2023-08-08T08:04:31;20.40;99.90
17639;DHT22;8938;53.546;9.954;2023-08-08T08:06:57;20.60;99.90
17639;DHT22;8938;53.546;9.954;2023-08-08T08:09:22;20.60;99.90
17639;DHT22;8938;53.546;9.954;2023-08-08T08:11:48;20.50;99.90
17639;DHT22;8938;53.546;9.954;2023-08-08T08:14:14;20.40;99.90
17639;DHT22;8938;53.546;9.954;2023-08-08T08:16:39;20.20;99.90
17639;DHT22;8938;53.546;9.954;2023-08-08T08:19:05;20.10;99.90
17639;DHT22;8938;53.546;9.954;2023-08-08T08:21:30;20.00;99.90
17639;DHT22;8938;53.546;9.954;2023-08-08T08:23:56;20.10;99.90
17639;DHT22;8938;53.546;9.954;2023-08-08T08:26:21;20.00;99.90
17639;DHT22;8938;53.546;9.954;2023-08-08T08:28:47;19.90;99.90
17639;DHT22;8938;53.546;9.954;2023-08-08T08:31:12;20.00;99.90
17639;DHT22;8938;53.546;9.954;2023-08-08T08:33:38;20.00;99.90
17639;DHT22;8938;53.546;9.954;2023-08-08T08:36:04;19.80;99.90
17639;DHT22;8938;53.546;9.954;2023-08-08T08:38:29;19.70;99.90
17639;DHT22;8938;53.546;9.954;2023-08-08T08:40:56;19.80;99.90
17639;DHT22;8938;53.546;9.954;2023-08-08T08:43:22;19.90;99.90
17639;DHT22;8938;53.546;9.954;2023-08-08T08:45:51;19.90;99.90
17639;DHT22;8938;53.546;9.954;2023-08-08T08:48:18;19.90;99.90
17639;DHT22;8938;53.546;9.954;2023-08-08T08:50:46;20.00;99.90
17639;DHT22;8938;53.546;9.954;2023-08-08T08:53:13;20.10;99.90
17639;DHT22;8938;53.546;9.954;2023-08-08T08:55:39;20.40;99.90
17639;DHT22;8938;53.546;9.954;2023-08-08T08:58:05;20.80;99.90
17639;DHT22;8938;53.546;9.954;2023-08-08T09:00:31;21.00;99.90
17639;DHT22;8938;53.546;9.954;2023-08-08T09:02:57;21.00;99.90
17639;DHT22;8938;53.546;9.954;2023-08-08T09:05:24;21.20;99.90
17639;DHT22;8938;53.546;9.954;2023-08-08T09:07:50;21.10;99.90
17639;DHT22;8938;53.546;9.954;2023-08-08T09:10:17;21.00;99.90
17639;DHT22;8938;53.546;9.954;2023-08-08T09:12:44;20.70;99.90
17639;DHT22;8938;53.546;9.954;2023-08-08T09:15:10;20.70;99.90
17639;DHT22;8938;53.546;9.954;2023-08-08T09:17:36;20.70;99.90
17639;DHT22;8938;53.546;9.954;2023-08-08T09:20:05;20.70;99.90
17639;DHT22;8938;53.546;9.954;2023-08-08T09:22:32;20.70;99.90
17639;DHT22;8938;53.546;9.954;2023-08-08T09:24:58;20.70;99.90
17639;DHT22;8938;53.546;9.954;2023-08-08T09:27:23;20.70;99.90
17639;DHT22;8938;53.546;9.954;2023-08-08T09:29:49;20.70;99.90
17639;DHT22;8938;53.546;9.954;2023-08-08T09:32:15;20.70;99.90
17639;DHT22;8938;53.546;9.954;2023-08-08T09:34:43;20.80;99.90
17639;DHT22;8938;53.546;9.954;2023-08-08T09:37:09;20.60;99.90
17639;DHT22;8938;53.546;9.954;2023-08-08T09:39:36;20.40;99.90
17639;DHT22;8938;53.546;9.954;2023-08-08T09:42:02;20.60;99.90
17639;DHT22;8938;53.546;9.954;2023-08-08T09:44:29;20.50;99.90
17639;DHT22;8938;53.546;9.954;2023-08-08T09:46:56;20.30;99.90
17639;DHT22;8938;53.546;9.954;2023-08-08T09:49:22;20.10;99.90
17639;DHT22;8938;53.546;9.954;2023-08-08T09:51:49;20.00;99.90
17639;DHT22;8938;53.546;9.954;2023-08-08T09:54:15;19.90;99.90
17639;DHT22;8938;53.546;9.954;2023-08-08T09:56:42;20.00;99.90
17639;DHT22;8938;53.546;9.954;2023-08-08T09:59:09;20.20;99.90
17639;DHT22;8938;53.546;9.954;2023-08-08T10:01:35;20.00;99.90
17639;DHT22;8938;53.546;9.954;2023-08-08T10:04:03;20.00;99.90
17639;DHT22;8938;53.546;9.954;2023-08-08T10:06:28;19.90;99.90
17639;DHT22;8938;53.546;9.954;2023-08-08T10:08:55;19.90;99.90
17639;DHT22;8938;53.546;9.954;2023-08-08T10:11:22;19.80;99.90
17639;DHT22;8938;53.546;9.954;2023-08-08T10:13:50;19.70;99.90
17639;DHT22;8938;53.546;9.954;2023-08-08T10:16:16;19.50;99.90
17639;DHT22;8938;53.546;9.954;2023-08-08T10:18:42;19.30;99.90
17639;DHT22;8938;53.546;9.954;2023-08-08T10:21:08;19.10;99.90
17639;DHT22;8938;53.546;9.954;2023-08-08T10:23:36;18.90;99.90
17639;DHT22;8938;53.546;9.954;2023-08-08T10:26:03;18.70;99.90
17639;DHT22;8938;53.546;9.954;2023-08-08T10:28:29;18.70;99.90
17639;DHT22;8938;53.546;9.954;2023-08-08T10:30:57;18.70;99.90
17639;DHT22;8938;53.546;9.954;2023-08-08T10:33:28;18.70;99.90
17639;DHT22;8938;53.546;9.954;2023-08-08T10:36:05;18.60;99.90
17639;DHT22;8938;53.546;9.954;2023-08-08T10:38:46;18.60;99.90
17639;DHT22;8938;53.546;9.954;2023-08-08T10:41:21;18.70;99.90
17639;DHT22;8938;53.546;9.954;2023-08-08T10:44:08;18.90;99.90
17639;DHT22;8938;53.546;9.954;2023-08-08T10:46:34;19.00;99.90
17639;DHT22;8938;53.546;9.954;2023-08-08T10:49:01;19.10;99.90
17639;DHT22;8938;53.546;9.954;2023-08-08T10:51:37;19.40;99.90
17639;DHT22;8938;53.546;9.954;2023-08-08T10:54:05;19.90;99.90
17639;DHT22;8938;53.546;9.954;2023-08-08T10:56:30;20.40;99.90
17639;DHT22;8938;53.546;9.954;2023-08-08T10:58:57;20.30;99.90
17639;DHT22;8938;53.546;9.954;2023-08-08T11:01:26;19.90;99.90
17639;DHT22;8938;53.546;9.954;2023-08-08T11:03:52;19.60;99.90
17639;DHT22;8938;53.546;9.954;2023-08-08T11:06:18;19.40;99.90
17639;DHT22;8938;53.546;9.954;2023-08-08T11:08:44;19.40;99.90
17639;DHT22;8938;53.546;9.954;2023-08-08T11:11:09;19.30;99.90
17639;DHT22;8938;53.546;9.954;2023-08-08T11:13:35;19.30;99.90
17639;DHT22;8938;53.546;9.954;2023-08-08T11:16:00;19.40;99.90
17639;DHT22;8938;53.546;9.954;2023-08-08T11:18:29;19.30;99.90
17639;DHT22;8938;53.546;9.954;2023-08-08T11:20:55;19.20;99.90
17639;DHT22;8938;53.546;9.954;2023-08-08T11:23:20;19.20;99.90
17639;DHT22;8938;53.546;9.954;2023-08-08T11:25:47;19.10;99.90
17639;DHT22;8938;53.546;9.954;2023-08-08T11:28:13;18.90;99.90
17639;DHT22;8938;53.546;9.954;2023-08-08T11:30:45;18.70;99.90
17639;DHT22;8938;53.546;9.954;2023-08-08T11:33:13;18.40;99.90
17639;DHT22;8938;53.546;9.954;2023-08-08T11:35:44;18.20;99.90
17639;DHT22;8938;53.546;9.954;2023-08-08T11:38:13;18.00;99.90
17639;DHT22;8938;53.546;9.954;2023-08-08T11:40:39;18.20;99.90
17639;DHT22;8938;53.546;9.954;2023-08-08T11:43:04;18.70;99.90
17639;DHT22;8938;53.546;9.954;2023-08-08T11:45:31;19.20;99.90
17639;DHT22;8938;53.546;9.954;2023-08-08T11:47:57;19.50;99.90
17639;DHT22;8938;53.546;9.954;2023-08-08T11:50:24;19.60;99.90
17639;DHT22;8938;53.546;9.954;2023-08-08T11:52:52;19.60;99.90
17639;DHT22;8938;53.546;9.954;2023-08-08T11:55:18;19.40;99.90
17639;DHT22;8938;53.546;9.954;2023-08-08T11:57:48;19.20;99.90
17639;DHT22;8938;53.546;9.954;2023-08-08T12:00:14;18.90;99.90
17639;DHT22;8938;53.546;9.954;2023-08-08T12:02:41;18.80;99.90
17639;DHT22;8938;53.546;9.954;2023-08-08T12:05:09;18.70;99.90
17639;DHT22;8938;53.546;9.954;2023-08-08T12:07:36;18.90;99.90
17639;DHT22;8938;53.546;9.954;2023-08-08T12:10:05;19.10;99.90
17639;DHT22;8938;53.546;9.954;2023-08-08T12:12:32;19.20;99.90
17639;DHT22;8938;53.546;9.954;2023-08-08T12:15:06;19.30;99.90
17639;DHT22;8938;53.546;9.954;2023-08-08T12:17:31;19.20;99.90
17639;DHT22;8938;53.546;9.954;2023-08-08T12:20:00;19.10;99.90
17639;DHT22;8938;53.546;9.954;2023-08-08T12:22:28;19.20;99.90
17639;DHT22;8938;53.546;9.954;2023-08-08T12:24:53;19.40;99.90
17639;DHT22;8938;53.546;9.954;2023-08-08T12:27:19;19.80;99.90
17639;DHT22;8938;53.546;9.954;2023-08-08T12:29:45;20.40;99.90
17639;DHT22;8938;53.546;9.954;2023-08-08T12:32:10;20.80;99.90
17639;DHT22;8938;53.546;9.954;2023-08-08T12:34:36;20.90;99.90
17639;DHT22;8938;53.546;9.954;2023-08-08T12:37:02;20.90;99.90
17639;DHT22;8938;53.546;9.954;2023-08-08T12:39:28;21.00;99.90
17639;DHT22;8938;53.546;9.954;2023-08-08T12:41:54;21.10;99.90
17639;DHT22;8938;53.546;9.954;2023-08-08T12:44:19;21.20;99.90
17639;DHT22;8938;53.546;9.954;2023-08-08T12:46:45;21.30;99.90
17639;DHT22;8938;53.546;9.954;2023-08-08T12:49:10;21.40;99.90
17639;DHT22;8938;53.546;9.954;2023-08-08T12:51:36;21.70;99.90
17639;DHT22;8938;53.546;9.954;2023-08-08T12:54:01;22.10;99.90
17639;DHT22;8938;53.546;9.954;2023-08-08T12:56:27;22.30;99.90
17639;DHT22;8938;53.546;9.954;2023-08-08T12:58:52;22.70;99.90
17639;DHT22;8938;53.546;9.954;2023-08-08T13:01:18;22.60;99.90
17639;DHT22;8938;53.546;9.954;2023-08-08T13:03:43;22.60;99.90
17639;DHT22;8938;53.546;9.954;2023-08-08T13:06:09;22.30;99.90
17639;DHT22;8938;53.546;9.954;2023-08-08T13:08:37;21.80;99.90
17639;DHT22;8938;53.546;9.954;2023-08-08T13:11:03;21.10;99.90
17639;DHT22;8938;53.546;9.954;2023-08-08T13:13:29;20.40;99.90
17639;DHT22;8938;53.546;9.954;2023-08-08T13:15:54;19.90;99.90
17639;DHT22;8938;53.546;9.954;2023-08-08T13:18:20;19.50;99.90
17639;DHT22;8938;53.546;9.954;2023-08-08T13:20:45;19.30;99.90
17639;DHT22;8938;53.546;9.954;2023-08-08T13:23:11;19.30;99.90
17639;DHT22;8938;53.546;9.954;2023-08-08T13:25:36;19.30;99.90
17639;DHT22;8938;53.546;9.954;2023-08-08T13:28:02;19.50;99.90
17639;DHT22;8938;53.546;9.954;2023-08-08T13:30:29;19.80;99.90
17639;DHT22;8938;53.546;9.954;2023-08-08T13:32:54;20.30;99.90
17639;DHT22;8938;53.546;9.954;2023-08-08T13:35:20;20.60;99.90
17639;DHT22;8938;53.546;9.954;2023-08-08T13:37:46;21.00;99.90
17639;DHT22;8938;53.546;9.954;2023-08-08T13:40:16;21.20;99.90
17639;DHT22;8938;53.546;9.954;2023-08-08T13:42:41;21.20;99.90
17639;DHT22;8938;53.546;9.954;2023-08-08T13:45:07;21.20;99.90
17639;DHT22;8938;53.546;9.954;2023-08-08T13:47:33;21.00;99.90
17639;DHT22;8938;53.546;9.954;2023-08-08T13:49:59;21.00;99.90
17639;DHT22;8938;53.546;9.954;2023-08-08T13:52:24;20.90;99.90
17639;DHT22;8938;53.546;9.954;2023-08-08T13:54:50;20.60;99.90
17639;DHT22;8938;53.546;9.954;2023-08-08T13:57:16;19.90;99.90
17639;DHT22;8938;53.546;9.954;2023-08-08T13:59:42;19.40;99.90
17639;DHT22;8938;53.546;9.954;2023-08-08T14:02:07;19.00;99.90
17639;DHT22;8938;53.546;9.954;2023-08-08T14:04:33;18.90;99.90
17639;DHT22;8938;53.546;9.954;2023-08-08T14:06:58;18.60;99.90
17639;DHT22;8938;53.546;9.954;2023-08-08T14:09:24;18.50;99.90
17639;DHT22;8938;53.546;9.954;2023-08-08T14:11:50;18.50;99.90
17639;DHT22;8938;53.546;9.954;2023-08-08T14:14:15;18.60;99.90
17639;DHT22;8938;53.546;9.954;2023-08-08T14:16:41;18.80;99.90
17639;DHT22;8938;53.546;9.954;2023-08-08T14:19:06;18.80;99.90
17639;DHT22;8938;53.546;9.954;2023-08-08T14:21:33;18.90;99.90
17639;DHT22;8938;53.546;9.954;2023-08-08T14:23:58;18.90;99.90
17639;DHT22;8938;53.546;9.954;2023-08-08T14:26:24;19.10;99.90
17639;DHT22;8938;53.546;9.954;2023-08-08T14:28:49;19.00;99.90
17639;DHT22;8938;53.546;9.954;2023-08-08T14:31:15;19.00;99.90
17639;DHT22;8938;53.546;9.954;2023-08-08T14:33:41;19.00;99.90
17639;DHT22;8938;53.546;9.954;2023-08-08T14:36:06;19.00;99.90
17639;DHT22;8938;53.546;9.954;2023-08-08T14:38:35;19.00;99.90
17639;DHT22;8938;53.546;9.954;2023-08-08T14:41:01;19.10;99.90
17639;DHT22;8938;53.546;9.954;2023-08-08T14:43:27;19.30;99.90
17639;DHT22;8938;53.546;9.954;2023-08-08T14:45:52;19.40;99.90
17639;DHT22;8938;53.546;9.954;2023-08-08T14:48:18;19.40;99.90
17639;DHT22;8938;53.546;9.954;2023-08-08T14:50:43;19.30;99.90
17639;DHT22;8938;53.546;9.954;2023-08-08T14:53:09;19.30;99.90
17639;DHT22;8938;53.546;9.954;2023-08-08T14:55:35;19.40;99.90
17639;DHT22;8938;53.546;9.954;2023-08-08T14:58:00;19.40;99.90
17639;DHT22;8938;53.546;9.954;2023-08-08T15:00:26;19.60;99.90
17639;DHT22;8938;53.546;9.954;2023-08-08T15:02:51;19.60;99.90
17639;DHT22;8938;53.546;9.954;2023-08-08T15:05:17;19.60;99.90
17639;DHT22;8938;53.546;9.954;2023-08-08T15:07:43;19.70;99.90
17639;DHT22;8938;53.546;9.954;2023-08-08T15:10:09;19.80;99.90
17639;DHT22;8938;53.546;9.954;2023-08-08T15:12:34;19.70;99.90
17639;DHT22;8938;53.546;9.954;2023-08-08T15:15:00;19.80;99.90
17639;DHT22;8938;53.546;9.954;2023-08-08T15:17:26;19.90;99.90
17639;DHT22;8938;53.546;9.954;2023-08-08T15:19:52;19.80;99.90
17639;DHT22;8938;53.546;9.954;2023-08-08T15:22:17;19.70;99.90
17639;DHT22;8938;53.546;9.954;2023-08-08T15:24:43;19.70;99.90
17639;DHT22;8938;53.546;9.954;2023-08-08T15:27:08;19.70;99.90
17639;DHT22;8938;53.546;9.954;2023-08-08T15:29:34;19.70;99.90
17639;DHT22;8938;53.546;9.954;2023-08-08T15:32:00;19.70;99.90
17639;DHT22;8938;53.546;9.954;2023-08-08T15:34:25;19.60;99.90
17639;DHT22;8938;53.546;9.954;2023-08-08T15:36:51;19.40;99.90
17639;DHT22;8938;53.546;9.954;2023-08-08T15:39:16;19.30;99.90